KDWX

Dixon Airport

Dixon, Wyoming, USA
METAR KDWX 231615Z AUTO 09004KT 10SM SCT065 M05/M09 A2995 RMK AO2 T10481095
Observed Flight Rules
Feb-23 @ 16:15 UTC (20 minutes ago) Visual Flight Rules
Wind Visibility Clouds
90° at 4 knots 10 miles
  • Scattered at 6,500' AGL
Temperatures Readings
Current -5°C / 23°F
Dewpoint -10°C / 14°F
Humidity 68%
Altimeter 29.95" Hg
Pressure 1014 hPa
Elevation 1996
METAR KDWX 231615Z AUTO 09004KT 10SM SCT065 M05/M09 A2995 RMK AO2 T10481095
Observed Flight Rules
Feb-23 @ 16:15 UTC
(20 minutes ago)
VFR
Wind Visibility
90° at 4 knots 10 miles
Clouds
  • Scattered at 6,500' AGL
Temperature Dewpoint
-5°C / 23°F -10°C / 14°F
Humidity Altimeter Pressure
68% 29.95" Hg 1014 hPa